PWSweather.com
Personal Weather Stations
Station Observations
LEONMETEO
LeonES 24008

LeonES 24008

Lat: 42.6055559, Lon: -5.5752249

Elevation: 2690

Station Type: La Crosse WS3600

leonmeteo.dx.am/

High Low Average
Temperature 50.0°F10.0°C 32.5°F0.3°C 40.4°F4.7°C
Dew Point 34.3°F1.3°C 25.1°F-3.8°C 29.7°F-1.3°C
Winds - 16091.8 kmh - 16091.8 kmh - N16091.8 kmh N
Wind Gusts -- -- --
Humidity 75% 52% 66%
Pressure 30.28 in1025.4 mb 30.18 in1022.0 mb -
Precipitation 0.00 in0.0 mm - -
Hour Temp Dew Point Humidity Winds Wind Gusts Pressure Precip Precip Rate Daily Precip Total
12:01 AM 38.6°F3.7°C 29.7°F-1.3°C 70% - N16091.8 kmh N -- 30.28 in1025.4 mb 0.00 in0.0 mm 0.00 in/hr0.0 mm/hr 0.00 in0.0 mm
12:06 AM 38.4°F3.6°C 29.5°F-1.4°C 70% - N16091.8 kmh N -- 30.28 in1025.4 mb 0.00 in0.0 mm 0.00 in/hr0.0 mm/hr 0.00 in0.0 mm
12:11 AM 38.3°F3.5°C 29.7°F-1.3°C 71% - N16091.8 kmh N -- 30.28 in1025.4 mb 0.00 in0.0 mm 0.00 in/hr0.0 mm/hr 0.00 in0.0 mm
12:16 AM 38.3°F3.5°C 29.7°F-1.3°C 71% - N16091.8 kmh N -- 30.28 in1025.4 mb 0.00 in0.0 mm 0.00 in/hr0.0 mm/hr 0.00 in0.0 mm
12:21 AM 38.3°F3.5°C 29.7°F-1.3°C 71% - N16091.8 kmh N -- 30.28 in1025.4 mb 0.00 in0.0 mm 0.00 in/hr0.0 mm/hr 0.00 in0.0 mm
12:26 AM 38.1°F3.4°C 29.5°F-1.4°C 71% - N16091.8 kmh N -- 30.28 in1025.4 mb 0.00 in0.0 mm 0.00 in/hr0.0 mm/hr 0.00 in0.0 mm
12:31 AM 38.1°F3.4°C 29.5°F-1.4°C 71% - N16091.8 kmh N -- 30.27 in1025.1 mb 0.00 in0.0 mm 0.00 in/hr0.0 mm/hr 0.00 in0.0 mm
12:36 AM 38.1°F3.4°C 29.5°F-1.4°C 71% - N16091.8 kmh N -- 30.27 in1025.1 mb 0.00 in0.0 mm 0.00 in/hr0.0 mm/hr 0.00 in0.0 mm
12:42 AM 37.9°F3.3°C 29.3°F-1.5°C 71% - N16091.8 kmh N -- 30.27 in1025.1 mb 0.00 in0.0 mm 0.00 in/hr0.0 mm/hr 0.00 in0.0 mm
12:47 AM 37.9°F3.3°C 29.3°F-1.5°C 71% - N16091.8 kmh N -- 30.27 in1025.1 mb 0.00 in0.0 mm 0.00 in/hr0.0 mm/hr 0.00 in0.0 mm
12:52 AM 37.9°F3.3°C 29.3°F-1.5°C 71% - N16091.8 kmh N -- 30.27 in1025.1 mb 0.00 in0.0 mm 0.00 in/hr0.0 mm/hr 0.00 in0.0 mm
12:57 AM 37.9°F3.3°C 29.3°F-1.5°C 72% - N16091.8 kmh N -- 30.27 in1025.1 mb 0.00 in0.0 mm 0.00 in/hr0.0 mm/hr 0.00 in0.0 mm
01:02 AM 37.9°F3.3°C 29.3°F-1.5°C 72% - N16091.8 kmh N -- 30.27 in1025.1 mb 0.00 in0.0 mm 0.00 in/hr0.0 mm/hr 0.00 in0.0 mm
01:07 AM 37.7°F3.2°C 29.5°F-1.4°C 72% - N16091.8 kmh N -- 30.27 in1025.1 mb 0.00 in0.0 mm 0.00 in/hr0.0 mm/hr 0.00 in0.0 mm
01:12 AM 37.5°F3.1°C 29.3°F-1.5°C 72% - N16091.8 kmh N -- 30.27 in1025.1 mb 0.00 in0.0 mm 0.00 in/hr0.0 mm/hr 0.00 in0.0 mm
01:17 AM 37.5°F3.1°C 29.3°F-1.5°C 72% - N16091.8 kmh N -- 30.27 in1025.1 mb 0.00 in0.0 mm 0.00 in/hr0.0 mm/hr 0.00 in0.0 mm
01:22 AM 37.2°F2.9°C 29.0°F-1.7°C 72% - N16091.8 kmh N -- 30.27 in1025.1 mb 0.00 in0.0 mm 0.00 in/hr0.0 mm/hr 0.00 in0.0 mm
01:27 AM 37.2°F2.9°C 29.0°F-1.7°C 72% - N16091.8 kmh N -- 30.27 in1025.1 mb 0.00 in0.0 mm 0.00 in/hr0.0 mm/hr 0.00 in0.0 mm
01:32 AM 37.2°F2.9°C 29.0°F-1.7°C 72% - N16091.8 kmh N -- 30.27 in1025.1 mb 0.00 in0.0 mm 0.00 in/hr0.0 mm/hr 0.00 in0.0 mm
01:37 AM 37.2°F2.9°C 29.0°F-1.7°C 72% - N16091.8 kmh N -- 30.26 in1024.7 mb 0.00 in0.0 mm 0.00 in/hr0.0 mm/hr 0.00 in0.0 mm
01:42 AM 37.2°F2.9°C 29.0°F-1.7°C 72% - N16091.8 kmh N -- 30.27 in1025.1 mb 0.00 in0.0 mm 0.00 in/hr0.0 mm/hr 0.00 in0.0 mm
01:47 AM 37.2°F2.9°C 29.0°F-1.7°C 73% - N16091.8 kmh N -- 30.26 in1024.7 mb 0.00 in0.0 mm 0.00 in/hr0.0 mm/hr 0.00 in0.0 mm
01:52 AM 37.4°F3.0°C 29.5°F-1.4°C 73% - N16091.8 kmh N -- 30.26 in1024.7 mb 0.00 in0.0 mm 0.00 in/hr0.0 mm/hr 0.00 in0.0 mm
01:57 AM 37.5°F3.1°C 29.7°F-1.3°C 73% - N16091.8 kmh N -- 30.26 in1024.7 mb 0.00 in0.0 mm 0.00 in/hr0.0 mm/hr 0.00 in0.0 mm
02:02 AM 37.5°F3.1°C 29.7°F-1.3°C 73% - N16091.8 kmh N -- 30.26 in1024.7 mb 0.00 in0.0 mm 0.00 in/hr0.0 mm/hr 0.00 in0.0 mm
02:07 AM 37.5°F3.1°C 29.7°F-1.3°C 73% - N16091.8 kmh N -- 30.26 in1024.7 mb 0.00 in0.0 mm 0.00 in/hr0.0 mm/hr 0.00 in0.0 mm
02:12 AM 37.5°F3.1°C 29.7°F-1.3°C 73% - N16091.8 kmh N -- 30.26 in1024.7 mb 0.00 in0.0 mm 0.00 in/hr0.0 mm/hr 0.00 in0.0 mm
02:17 AM 37.5°F3.1°C 29.7°F-1.3°C 73% - N16091.8 kmh N -- 30.26 in1024.7 mb 0.00 in0.0 mm 0.00 in/hr0.0 mm/hr 0.00 in0.0 mm
02:22 AM 37.5°F3.1°C 29.7°F-1.3°C 73% - N16091.8 kmh N -- 30.26 in1024.7 mb 0.00 in0.0 mm 0.00 in/hr0.0 mm/hr 0.00 in0.0 mm
02:26 AM 37.5°F3.1°C 29.7°F-1.3°C 73% - N16091.8 kmh N -- 30.25 in1024.4 mb 0.00 in0.0 mm 0.00 in/hr0.0 mm/hr 0.00 in0.0 mm
02:31 AM 37.2°F2.9°C 29.3°F-1.5°C 73% - N16091.8 kmh N -- 30.25 in1024.4 mb 0.00 in0.0 mm 0.00 in/hr0.0 mm/hr 0.00 in0.0 mm
02:36 AM 37.2°F2.9°C 29.3°F-1.5°C 73% - N16091.8 kmh N -- 30.26 in1024.7 mb 0.00 in0.0 mm 0.00 in/hr0.0 mm/hr 0.00 in0.0 mm
02:41 AM 37.0°F2.8°C 29.1°F-1.6°C 73% - N16091.8 kmh N -- 30.25 in1024.4 mb 0.00 in0.0 mm 0.00 in/hr0.0 mm/hr 0.00 in0.0 mm
02:46 AM 37.0°F2.8°C 29.1°F-1.6°C 73% - N16091.8 kmh N -- 30.25 in1024.4 mb 0.00 in0.0 mm 0.00 in/hr0.0 mm/hr 0.00 in0.0 mm
02:51 AM 37.0°F2.8°C 29.1°F-1.6°C 73% - N16091.8 kmh N -- 30.25 in1024.4 mb 0.00 in0.0 mm 0.00 in/hr0.0 mm/hr 0.00 in0.0 mm
02:56 AM 36.6°F2.6°C 28.8°F-1.8°C 73% - N16091.8 kmh N -- 30.25 in1024.4 mb 0.00 in0.0 mm 0.00 in/hr0.0 mm/hr 0.00 in0.0 mm
03:01 AM 36.5°F2.5°C 28.3°F-2.1°C 72% - N16091.8 kmh N -- 30.25 in1024.4 mb 0.00 in0.0 mm 0.00 in/hr0.0 mm/hr 0.00 in0.0 mm
03:07 AM 36.3°F2.4°C 28.1°F-2.2°C 72% - N16091.8 kmh N -- 30.25 in1024.4 mb 0.00 in0.0 mm 0.00 in/hr0.0 mm/hr 0.00 in0.0 mm
03:12 AM 36.3°F2.4°C 28.1°F-2.2°C 73% - N16091.8 kmh N -- 30.25 in1024.4 mb 0.00 in0.0 mm 0.00 in/hr0.0 mm/hr 0.00 in0.0 mm
03:17 AM 36.3°F2.4°C 28.1°F-2.2°C 73% - N16091.8 kmh N -- 30.25 in1024.4 mb 0.00 in0.0 mm 0.00 in/hr0.0 mm/hr 0.00 in0.0 mm
03:22 AM 36.3°F2.4°C 28.1°F-2.2°C 73% - N16091.8 kmh N -- 30.25 in1024.4 mb 0.00 in0.0 mm 0.00 in/hr0.0 mm/hr 0.00 in0.0 mm
03:27 AM 36.3°F2.4°C 28.1°F-2.2°C 73% - N16091.8 kmh N -- 30.25 in1024.4 mb 0.00 in0.0 mm 0.00 in/hr0.0 mm/hr 0.00 in0.0 mm
03:32 AM 36.3°F2.4°C 28.1°F-2.2°C 73% - N16091.8 kmh N -- 30.25 in1024.4 mb 0.00 in0.0 mm 0.00 in/hr0.0 mm/hr 0.00 in0.0 mm
03:36 AM 36.3°F2.4°C 28.1°F-2.2°C 73% - N16091.8 kmh N -- 30.25 in1024.4 mb 0.00 in0.0 mm 0.00 in/hr0.0 mm/hr 0.00 in0.0 mm
03:42 AM 36.1°F2.3°C 28.2°F-2.1°C 73% - N16091.8 kmh N -- 30.26 in1024.7 mb 0.00 in0.0 mm 0.00 in/hr0.0 mm/hr 0.00 in0.0 mm
03:47 AM 36.1°F2.3°C 28.2°F-2.1°C 73% - N16091.8 kmh N -- 30.26 in1024.7 mb 0.00 in0.0 mm 0.00 in/hr0.0 mm/hr 0.00 in0.0 mm
03:52 AM 36.1°F2.3°C 28.2°F-2.1°C 73% - N16091.8 kmh N -- 30.25 in1024.4 mb 0.00 in0.0 mm 0.00 in/hr0.0 mm/hr 0.00 in0.0 mm
03:57 AM 36.1°F2.3°C 28.2°F-2.1°C 73% - N16091.8 kmh N -- 30.26 in1024.7 mb 0.00 in0.0 mm 0.00 in/hr0.0 mm/hr 0.00 in0.0 mm
04:02 AM 35.9°F2.2°C 28.1°F-2.2°C 73% - N16091.8 kmh N -- 30.25 in1024.4 mb 0.00 in0.0 mm 0.00 in/hr0.0 mm/hr 0.00 in0.0 mm
04:07 AM 35.9°F2.2°C 28.1°F-2.2°C 73% - N16091.8 kmh N -- 30.26 in1024.7 mb 0.00 in0.0 mm 0.00 in/hr0.0 mm/hr 0.00 in0.0 mm
04:12 AM 35.9°F2.2°C 28.1°F-2.2°C 73% - N16091.8 kmh N -- 30.26 in1024.7 mb 0.00 in0.0 mm 0.00 in/hr0.0 mm/hr 0.00 in0.0 mm
04:17 AM 35.7°F2.1°C 27.9°F-2.3°C 73% - N16091.8 kmh N -- 30.26 in1024.7 mb 0.00 in0.0 mm 0.00 in/hr0.0 mm/hr 0.00 in0.0 mm
04:22 AM 35.7°F2.1°C 27.9°F-2.3°C 73% - N16091.8 kmh N -- 30.26 in1024.7 mb 0.00 in0.0 mm 0.00 in/hr0.0 mm/hr 0.00 in0.0 mm
04:27 AM 35.7°F2.1°C 27.9°F-2.3°C 73% - N16091.8 kmh N -- 30.25 in1024.4 mb 0.00 in0.0 mm 0.00 in/hr0.0 mm/hr 0.00 in0.0 mm
04:32 AM 35.4°F1.9°C 27.5°F-2.5°C 73% - N16091.8 kmh N -- 30.25 in1024.4 mb 0.00 in0.0 mm 0.00 in/hr0.0 mm/hr 0.00 in0.0 mm
04:37 AM 35.2°F1.8°C 27.3°F-2.6°C 73% - N16091.8 kmh N -- 30.25 in1024.4 mb 0.00 in0.0 mm 0.00 in/hr0.0 mm/hr 0.00 in0.0 mm
04:42 AM 35.2°F1.8°C 27.3°F-2.6°C 73% - N16091.8 kmh N -- 30.25 in1024.4 mb 0.00 in0.0 mm 0.00 in/hr0.0 mm/hr 0.00 in0.0 mm
04:47 AM 35.2°F1.8°C 27.3°F-2.6°C 73% - N16091.8 kmh N -- 30.25 in1024.4 mb 0.00 in0.0 mm 0.00 in/hr0.0 mm/hr 0.00 in0.0 mm
04:52 AM 35.2°F1.8°C 27.3°F-2.6°C 73% - N16091.8 kmh N -- 30.25 in1024.4 mb 0.00 in0.0 mm 0.00 in/hr0.0 mm/hr 0.00 in0.0 mm
04:57 AM 35.2°F1.8°C 27.3°F-2.6°C 74% - N16091.8 kmh N -- 30.25 in1024.4 mb 0.00 in0.0 mm 0.00 in/hr0.0 mm/hr 0.00 in0.0 mm
05:02 AM 35.2°F1.8°C 27.3°F-2.6°C 73% - N16091.8 kmh N -- 30.25 in1024.4 mb 0.00 in0.0 mm 0.00 in/hr0.0 mm/hr 0.00 in0.0 mm
05:07 AM 35.4°F1.9°C 27.5°F-2.5°C 73% - N16091.8 kmh N -- 30.25 in1024.4 mb 0.00 in0.0 mm 0.00 in/hr0.0 mm/hr 0.00 in0.0 mm
05:13 AM 35.4°F1.9°C 27.5°F-2.5°C 73% - N16091.8 kmh N -- 30.25 in1024.4 mb 0.00 in0.0 mm 0.00 in/hr0.0 mm/hr 0.00 in0.0 mm
05:18 AM 35.7°F2.1°C 27.9°F-2.3°C 73% - N16091.8 kmh N -- 30.25 in1024.4 mb 0.00 in0.0 mm 0.00 in/hr0.0 mm/hr 0.00 in0.0 mm
05:23 AM 35.9°F2.2°C 28.1°F-2.2°C 73% - N16091.8 kmh N -- 30.25 in1024.4 mb 0.00 in0.0 mm 0.00 in/hr0.0 mm/hr 0.00 in0.0 mm
05:28 AM 35.9°F2.2°C 28.1°F-2.2°C 73% - N16091.8 kmh N -- 30.25 in1024.4 mb 0.00 in0.0 mm 0.00 in/hr0.0 mm/hr 0.00 in0.0 mm
05:33 AM 35.9°F2.2°C 28.1°F-2.2°C 72% - N16091.8 kmh N -- 30.25 in1024.4 mb 0.00 in0.0 mm 0.00 in/hr0.0 mm/hr 0.00 in0.0 mm
05:38 AM 35.7°F2.1°C 27.6°F-2.4°C 72% - N16091.8 kmh N -- 30.25 in1024.4 mb 0.00 in0.0 mm 0.00 in/hr0.0 mm/hr 0.00 in0.0 mm
05:43 AM 35.7°F2.1°C 27.6°F-2.4°C 72% - N16091.8 kmh N -- 30.25 in1024.4 mb 0.00 in0.0 mm 0.00 in/hr0.0 mm/hr 0.00 in0.0 mm
05:48 AM 35.4°F1.9°C 27.2°F-2.7°C 72% - N16091.8 kmh N -- 30.24 in1024.0 mb 0.00 in0.0 mm 0.00 in/hr0.0 mm/hr 0.00 in0.0 mm
05:53 AM 35.4°F1.9°C 27.2°F-2.7°C 72% - N16091.8 kmh N -- 30.24 in1024.0 mb 0.00 in0.0 mm 0.00 in/hr0.0 mm/hr 0.00 in0.0 mm
05:58 AM 35.4°F1.9°C 27.2°F-2.7°C 72% - N16091.8 kmh N -- 30.24 in1024.0 mb 0.00 in0.0 mm 0.00 in/hr0.0 mm/hr 0.00 in0.0 mm
06:03 AM 35.4°F1.9°C 27.2°F-2.7°C 72% - N16091.8 kmh N -- 30.24 in1024.0 mb 0.00 in0.0 mm 0.00 in/hr0.0 mm/hr 0.00 in0.0 mm
06:08 AM 35.4°F1.9°C 27.2°F-2.7°C 72% - N16091.8 kmh N -- 30.24 in1024.0 mb 0.00 in0.0 mm 0.00 in/hr0.0 mm/hr 0.00 in0.0 mm
06:13 AM 35.2°F1.8°C 27.0°F-2.8°C 72% - N16091.8 kmh N -- 30.24 in1024.0 mb 0.00 in0.0 mm 0.00 in/hr0.0 mm/hr 0.00 in0.0 mm
06:18 AM 35.2°F1.8°C 27.0°F-2.8°C 73% - N16091.8 kmh N -- 30.24 in1024.0 mb 0.00 in0.0 mm 0.00 in/hr0.0 mm/hr 0.00 in0.0 mm
06:23 AM 35.2°F1.8°C 27.0°F-2.8°C 73% - N16091.8 kmh N -- 30.23 in1023.7 mb 0.00 in0.0 mm 0.00 in/hr0.0 mm/hr 0.00 in0.0 mm
06:28 AM 34.8°F1.6°C 26.7°F-2.9°C 72% - N16091.8 kmh N -- 30.23 in1023.7 mb 0.00 in0.0 mm 0.00 in/hr0.0 mm/hr 0.00 in0.0 mm
06:33 AM 34.8°F1.6°C 26.7°F-2.9°C 73% - N16091.8 kmh N -- 30.23 in1023.7 mb 0.00 in0.0 mm 0.00 in/hr0.0 mm/hr 0.00 in0.0 mm
06:38 AM 34.8°F1.6°C 26.7°F-2.9°C 73% - N16091.8 kmh N -- 30.23 in1023.7 mb 0.00 in0.0 mm 0.00 in/hr0.0 mm/hr 0.00 in0.0 mm
06:43 AM 34.8°F1.6°C 26.7°F-2.9°C 73% - N16091.8 kmh N -- 30.23 in1023.7 mb 0.00 in0.0 mm 0.00 in/hr0.0 mm/hr 0.00 in0.0 mm
06:48 AM 35.2°F1.8°C 27.3°F-2.6°C 73% - N16091.8 kmh N -- 30.22 in1023.4 mb 0.00 in0.0 mm 0.00 in/hr0.0 mm/hr 0.00 in0.0 mm
06:53 AM 35.2°F1.8°C 27.3°F-2.6°C 73% - N16091.8 kmh N -- 30.22 in1023.4 mb 0.00 in0.0 mm 0.00 in/hr0.0 mm/hr 0.00 in0.0 mm
06:58 AM 35.0°F1.7°C 27.2°F-2.7°C 73% - N16091.8 kmh N -- 30.23 in1023.7 mb 0.00 in0.0 mm 0.00 in/hr0.0 mm/hr 0.00 in0.0 mm
07:03 AM 34.7°F1.5°C 26.8°F-2.9°C 73% - N16091.8 kmh N -- 30.22 in1023.4 mb 0.00 in0.0 mm 0.00 in/hr0.0 mm/hr 0.00 in0.0 mm
07:08 AM 34.5°F1.4°C 26.6°F-3.0°C 73% - N16091.8 kmh N -- 30.22 in1023.4 mb 0.00 in0.0 mm 0.00 in/hr0.0 mm/hr 0.00 in0.0 mm
07:13 AM 34.5°F1.4°C 26.6°F-3.0°C 73% - N16091.8 kmh N -- 30.23 in1023.7 mb 0.00 in0.0 mm 0.00 in/hr0.0 mm/hr 0.00 in0.0 mm
07:18 AM 34.1°F1.2°C 26.3°F-3.2°C 73% - N16091.8 kmh N -- 30.23 in1023.7 mb 0.00 in0.0 mm 0.00 in/hr0.0 mm/hr 0.00 in0.0 mm
07:23 AM 33.9°F1.1°C 26.1°F-3.3°C 73% - N16091.8 kmh N -- 30.23 in1023.7 mb 0.00 in0.0 mm 0.00 in/hr0.0 mm/hr 0.00 in0.0 mm
07:28 AM 33.6°F0.9°C 25.7°F-3.5°C 73% - N16091.8 kmh N -- 30.23 in1023.7 mb 0.00 in0.0 mm 0.00 in/hr0.0 mm/hr 0.00 in0.0 mm
07:33 AM 33.4°F0.8°C 25.6°F-3.6°C 73% - N16091.8 kmh N -- 30.23 in1023.7 mb 0.00 in0.0 mm 0.00 in/hr0.0 mm/hr 0.00 in0.0 mm
07:38 AM 33.4°F0.8°C 25.6°F-3.6°C 73% - N16091.8 kmh N -- 30.24 in1024.0 mb 0.00 in0.0 mm 0.00 in/hr0.0 mm/hr 0.00 in0.0 mm
07:43 AM 33.4°F0.8°C 25.6°F-3.6°C 73% - N16091.8 kmh N -- 30.24 in1024.0 mb 0.00 in0.0 mm 0.00 in/hr0.0 mm/hr 0.00 in0.0 mm
07:48 AM 33.4°F0.8°C 25.6°F-3.6°C 73% - N16091.8 kmh N -- 30.24 in1024.0 mb 0.00 in0.0 mm 0.00 in/hr0.0 mm/hr 0.00 in0.0 mm
07:54 AM 33.4°F0.8°C 25.6°F-3.6°C 73% - N16091.8 kmh N -- 30.24 in1024.0 mb 0.00 in0.0 mm 0.00 in/hr0.0 mm/hr 0.00 in0.0 mm
07:59 AM 33.0°F0.6°C 25.3°F-3.7°C 73% - N16091.8 kmh N -- 30.24 in1024.0 mb 0.00 in0.0 mm 0.00 in/hr0.0 mm/hr 0.00 in0.0 mm
08:04 AM 33.0°F0.6°C 25.3°F-3.7°C 74% - N16091.8 kmh N -- 30.24 in1024.0 mb 0.00 in0.0 mm 0.00 in/hr0.0 mm/hr 0.00 in0.0 mm
08:09 AM 33.0°F0.6°C 25.3°F-3.7°C 74% - N16091.8 kmh N -- 30.25 in1024.4 mb 0.00 in0.0 mm 0.00 in/hr0.0 mm/hr 0.00 in0.0 mm
08:14 AM 33.0°F0.6°C 25.3°F-3.7°C 74% - N16091.8 kmh N -- 30.25 in1024.4 mb 0.00 in0.0 mm 0.00 in/hr0.0 mm/hr 0.00 in0.0 mm
08:19 AM 32.9°F0.5°C 25.4°F-3.7°C 74% - N16091.8 kmh N -- 30.25 in1024.4 mb 0.00 in0.0 mm 0.00 in/hr0.0 mm/hr 0.00 in0.0 mm
08:23 AM 32.7°F0.4°C 25.3°F-3.7°C 74% - N16091.8 kmh N -- 30.25 in1024.4 mb 0.00 in0.0 mm 0.00 in/hr0.0 mm/hr 0.00 in0.0 mm
08:29 AM 32.5°F0.3°C 25.1°F-3.8°C 74% - N16091.8 kmh N -- 30.25 in1024.4 mb 0.00 in0.0 mm 0.00 in/hr0.0 mm/hr 0.00 in0.0 mm
08:34 AM 32.5°F0.3°C 25.1°F-3.8°C 74% - N16091.8 kmh N -- 30.25 in1024.4 mb 0.00 in0.0 mm 0.00 in/hr0.0 mm/hr 0.00 in0.0 mm
08:39 AM 32.5°F0.3°C 25.1°F-3.8°C 74% - N16091.8 kmh N -- 30.25 in1024.4 mb 0.00 in0.0 mm 0.00 in/hr0.0 mm/hr 0.00 in0.0 mm
08:44 AM 32.5°F0.3°C 25.1°F-3.8°C 74% - N16091.8 kmh N -- 30.26 in1024.7 mb 0.00 in0.0 mm 0.00 in/hr0.0 mm/hr 0.00 in0.0 mm
08:49 AM 32.5°F0.3°C 25.1°F-3.8°C 74% - N16091.8 kmh N -- 30.26 in1024.7 mb 0.00 in0.0 mm 0.00 in/hr0.0 mm/hr 0.00 in0.0 mm
08:54 AM 32.5°F0.3°C 25.1°F-3.8°C 74% - N16091.8 kmh N -- 30.26 in1024.7 mb 0.00 in0.0 mm 0.00 in/hr0.0 mm/hr 0.00 in0.0 mm
08:59 AM 32.7°F0.4°C 25.3°F-3.7°C 74% - N16091.8 kmh N -- 30.27 in1025.1 mb 0.00 in0.0 mm 0.00 in/hr0.0 mm/hr 0.00 in0.0 mm
09:04 AM 32.7°F0.4°C 25.3°F-3.7°C 75% - N16091.8 kmh N -- 30.27 in1025.1 mb 0.00 in0.0 mm 0.00 in/hr0.0 mm/hr 0.00 in0.0 mm
09:09 AM 32.9°F0.5°C 25.7°F-3.5°C 75% - N16091.8 kmh N -- 30.27 in1025.1 mb 0.00 in0.0 mm 0.00 in/hr0.0 mm/hr 0.00 in0.0 mm
09:14 AM 33.0°F0.6°C 25.9°F-3.4°C 75% - N16091.8 kmh N -- 30.27 in1025.1 mb 0.00 in0.0 mm 0.00 in/hr0.0 mm/hr 0.00 in0.0 mm
09:19 AM 33.2°F0.7°C 26.1°F-3.3°C 75% - N16091.8 kmh N -- 30.27 in1025.1 mb 0.00 in0.0 mm 0.00 in/hr0.0 mm/hr 0.00 in0.0 mm
09:24 AM 33.4°F0.8°C 26.2°F-3.2°C 75% - N16091.8 kmh N -- 30.27 in1025.1 mb 0.00 in0.0 mm 0.00 in/hr0.0 mm/hr 0.00 in0.0 mm
09:31 AM 33.9°F1.1°C 26.7°F-2.9°C 75% - N16091.8 kmh N -- 30.27 in1025.1 mb 0.00 in0.0 mm 0.00 in/hr0.0 mm/hr 0.00 in0.0 mm
09:36 AM 34.3°F1.3°C 27.1°F-2.7°C 75% - N16091.8 kmh N -- 30.27 in1025.1 mb 0.00 in0.0 mm 0.00 in/hr0.0 mm/hr 0.00 in0.0 mm
09:40 AM 34.5°F1.4°C 27.3°F-2.6°C 75% - N16091.8 kmh N -- 30.27 in1025.1 mb 0.00 in0.0 mm 0.00 in/hr0.0 mm/hr 0.00 in0.0 mm
09:46 AM 34.7°F1.5°C 27.5°F-2.5°C 75% - N16091.8 kmh N -- 30.27 in1025.1 mb 0.00 in0.0 mm 0.00 in/hr0.0 mm/hr 0.00 in0.0 mm
09:51 AM 35.2°F1.8°C 28.0°F-2.2°C 75% - N16091.8 kmh N -- 30.27 in1025.1 mb 0.00 in0.0 mm 0.00 in/hr0.0 mm/hr 0.00 in0.0 mm
09:56 AM 35.7°F2.1°C 28.5°F-1.9°C 75% - N16091.8 kmh N -- 30.27 in1025.1 mb 0.00 in0.0 mm 0.00 in/hr0.0 mm/hr 0.00 in0.0 mm
10:01 AM 36.5°F2.5°C 29.3°F-1.5°C 75% - N16091.8 kmh N -- 30.27 in1025.1 mb 0.00 in0.0 mm 0.00 in/hr0.0 mm/hr 0.00 in0.0 mm
10:06 AM 36.6°F2.6°C 29.4°F-1.4°C 75% - N16091.8 kmh N -- 30.27 in1025.1 mb 0.00 in0.0 mm 0.00 in/hr0.0 mm/hr 0.00 in0.0 mm
10:11 AM 37.0°F2.8°C 29.8°F-1.2°C 75% - N16091.8 kmh N -- 30.27 in1025.1 mb 0.00 in0.0 mm 0.00 in/hr0.0 mm/hr 0.00 in0.0 mm
10:16 AM 37.2°F2.9°C 30.0°F-1.1°C 74% - N16091.8 kmh N -- 30.27 in1025.1 mb 0.00 in0.0 mm 0.00 in/hr0.0 mm/hr 0.00 in0.0 mm
10:21 AM 37.2°F2.9°C 30.0°F-1.1°C 74% - N16091.8 kmh N -- 30.27 in1025.1 mb 0.00 in0.0 mm 0.00 in/hr0.0 mm/hr 0.00 in0.0 mm
10:26 AM 37.5°F3.1°C 30.0°F-1.1°C 74% - N16091.8 kmh N -- 30.26 in1024.7 mb 0.00 in0.0 mm 0.00 in/hr0.0 mm/hr 0.00 in0.0 mm
10:31 AM 37.9°F3.3°C 30.3°F-0.9°C 74% - N16091.8 kmh N -- 30.26 in1024.7 mb 0.00 in0.0 mm 0.00 in/hr0.0 mm/hr 0.00 in0.0 mm
10:36 AM 38.3°F3.5°C 30.7°F-0.7°C 74% - N16091.8 kmh N -- 30.26 in1024.7 mb 0.00 in0.0 mm 0.00 in/hr0.0 mm/hr 0.00 in0.0 mm
10:41 AM 38.8°F3.8°C 31.2°F-0.4°C 74% - N16091.8 kmh N -- 30.26 in1024.7 mb 0.00 in0.0 mm 0.00 in/hr0.0 mm/hr 0.00 in0.0 mm
10:46 AM 39.0°F3.9°C 31.4°F-0.3°C 74% - N16091.8 kmh N -- 30.26 in1024.7 mb 0.00 in0.0 mm 0.00 in/hr0.0 mm/hr 0.00 in0.0 mm
10:51 AM 39.3°F4.1°C 31.4°F-0.3°C 73% - N16091.8 kmh N -- 30.25 in1024.4 mb 0.00 in0.0 mm 0.00 in/hr0.0 mm/hr 0.00 in0.0 mm
10:56 AM 39.5°F4.2°C 31.5°F-0.3°C 73% - N16091.8 kmh N -- 30.25 in1024.4 mb 0.00 in0.0 mm 0.00 in/hr0.0 mm/hr 0.00 in0.0 mm
11:01 AM 39.7°F4.3°C 31.7°F-0.2°C 73% - N16091.8 kmh N -- 30.25 in1024.4 mb 0.00 in0.0 mm 0.00 in/hr0.0 mm/hr 0.00 in0.0 mm
11:06 AM 40.1°F4.5°C 32.1°F0.1°C 73% - N16091.8 kmh N -- 30.25 in1024.4 mb 0.00 in0.0 mm 0.00 in/hr0.0 mm/hr 0.00 in0.0 mm
11:11 AM 40.2°F4.6°C 32.2°F0.1°C 73% - N16091.8 kmh N -- 30.25 in1024.4 mb 0.00 in0.0 mm 0.00 in/hr0.0 mm/hr 0.00 in0.0 mm
11:16 AM 40.8°F4.9°C 32.7°F0.4°C 73% - N16091.8 kmh N -- 30.25 in1024.4 mb 0.00 in0.0 mm 0.00 in/hr0.0 mm/hr 0.00 in0.0 mm
11:21 AM 41.1°F5.1°C 33.1°F0.6°C 73% - N16091.8 kmh N -- 30.25 in1024.4 mb 0.00 in0.0 mm 0.00 in/hr0.0 mm/hr 0.00 in0.0 mm
11:26 AM 41.7°F5.4°C 33.3°F0.7°C 72% - N16091.8 kmh N -- 30.24 in1024.0 mb 0.00 in0.0 mm 0.00 in/hr0.0 mm/hr 0.00 in0.0 mm
11:31 AM 42.4°F5.8°C 33.7°F0.9°C 71% - N16091.8 kmh N -- 30.25 in1024.4 mb 0.00 in0.0 mm 0.00 in/hr0.0 mm/hr 0.00 in0.0 mm
11:36 AM 42.9°F6.1°C 33.9°F1.1°C 70% - N16091.8 kmh N -- 30.25 in1024.4 mb 0.00 in0.0 mm 0.00 in/hr0.0 mm/hr 0.00 in0.0 mm
11:41 AM 43.3°F6.3°C 33.8°F1.0°C 69% - N16091.8 kmh N -- 30.25 in1024.4 mb 0.00 in0.0 mm 0.00 in/hr0.0 mm/hr 0.00 in0.0 mm
11:46 AM 43.7°F6.5°C 34.2°F1.2°C 69% - N16091.8 kmh N -- 30.25 in1024.4 mb 0.00 in0.0 mm 0.00 in/hr0.0 mm/hr 0.00 in0.0 mm
11:52 AM 43.8°F6.6°C 34.0°F1.1°C 68% - N16091.8 kmh N -- 30.25 in1024.4 mb 0.00 in0.0 mm 0.00 in/hr0.0 mm/hr 0.00 in0.0 mm
11:57 AM 43.8°F6.6°C 34.0°F1.1°C 68% - N16091.8 kmh N -- 30.25 in1024.4 mb 0.00 in0.0 mm 0.00 in/hr0.0 mm/hr 0.00 in0.0 mm
12:02 PM 44.2°F6.8°C 33.9°F1.1°C 67% - N16091.8 kmh N -- 30.25 in1024.4 mb 0.00 in0.0 mm 0.00 in/hr0.0 mm/hr 0.00 in0.0 mm
12:07 PM 44.4°F6.9°C 34.1°F1.2°C 67% - N16091.8 kmh N -- 30.25 in1024.4 mb 0.00 in0.0 mm 0.00 in/hr0.0 mm/hr 0.00 in0.0 mm
12:12 PM 44.4°F6.9°C 34.1°F1.2°C 66% - N16091.8 kmh N -- 30.25 in1024.4 mb 0.00 in0.0 mm 0.00 in/hr0.0 mm/hr 0.00 in0.0 mm
12:17 PM 44.9°F7.2°C 34.2°F1.2°C 66% - N16091.8 kmh N -- 30.25 in1024.4 mb 0.00 in0.0 mm 0.00 in/hr0.0 mm/hr 0.00 in0.0 mm
12:22 PM 44.9°F7.2°C 34.2°F1.2°C 65% - N16091.8 kmh N -- 30.24 in1024.0 mb 0.00 in0.0 mm 0.00 in/hr0.0 mm/hr 0.00 in0.0 mm
12:26 PM 45.1°F7.3°C 34.0°F1.1°C 65% - N16091.8 kmh N -- 30.24 in1024.0 mb 0.00 in0.0 mm 0.00 in/hr0.0 mm/hr 0.00 in0.0 mm
12:31 PM 45.3°F7.4°C 34.2°F1.2°C 64% - N16091.8 kmh N -- 30.24 in1024.0 mb 0.00 in0.0 mm 0.00 in/hr0.0 mm/hr 0.00 in0.0 mm
12:36 PM 45.5°F7.5°C 34.0°F1.1°C 64% - N16091.8 kmh N -- 30.24 in1024.0 mb 0.00 in0.0 mm 0.00 in/hr0.0 mm/hr 0.00 in0.0 mm
12:41 PM 45.6°F7.6°C 34.1°F1.2°C 64% - N16091.8 kmh N -- 30.24 in1024.0 mb 0.00 in0.0 mm 0.00 in/hr0.0 mm/hr 0.00 in0.0 mm
12:46 PM 46.0°F7.8°C 34.1°F1.2°C 63% - N16091.8 kmh N -- 30.23 in1023.7 mb 0.00 in0.0 mm 0.00 in/hr0.0 mm/hr 0.00 in0.0 mm
12:51 PM 46.0°F7.8°C 34.1°F1.2°C 63% - N16091.8 kmh N -- 30.24 in1024.0 mb 0.00 in0.0 mm 0.00 in/hr0.0 mm/hr 0.00 in0.0 mm
12:56 PM 46.2°F7.9°C 33.8°F1.0°C 62% - N16091.8 kmh N -- 30.24 in1024.0 mb 0.00 in0.0 mm 0.00 in/hr0.0 mm/hr 0.00 in0.0 mm
01:01 PM 46.2°F7.9°C 33.8°F1.0°C 62% - N16091.8 kmh N -- 30.24 in1024.0 mb 0.00 in0.0 mm 0.00 in/hr0.0 mm/hr 0.00 in0.0 mm
01:06 PM 46.5°F8.1°C 34.2°F1.2°C 62% - N16091.8 kmh N -- 30.23 in1023.7 mb 0.00 in0.0 mm 0.00 in/hr0.0 mm/hr 0.00 in0.0 mm
01:11 PM 46.5°F8.1°C 34.2°F1.2°C 61% - N16091.8 kmh N -- 30.23 in1023.7 mb 0.00 in0.0 mm 0.00 in/hr0.0 mm/hr 0.00 in0.0 mm
01:16 PM 46.7°F8.2°C 34.0°F1.1°C 61% - N16091.8 kmh N -- 30.23 in1023.7 mb 0.00 in0.0 mm 0.00 in/hr0.0 mm/hr 0.00 in0.0 mm
01:21 PM 46.9°F8.3°C 34.1°F1.2°C 60% - N16091.8 kmh N -- 30.22 in1023.4 mb 0.00 in0.0 mm 0.00 in/hr0.0 mm/hr 0.00 in0.0 mm
01:26 PM 47.1°F8.4°C 33.9°F1.1°C 60% - N16091.8 kmh N -- 30.22 in1023.4 mb 0.00 in0.0 mm 0.00 in/hr0.0 mm/hr 0.00 in0.0 mm
01:31 PM 47.3°F8.5°C 34.1°F1.2°C 60% - N16091.8 kmh N -- 30.22 in1023.4 mb 0.00 in0.0 mm 0.00 in/hr0.0 mm/hr 0.00 in0.0 mm
01:36 PM 47.4°F8.6°C 33.8°F1.0°C 59% - N16091.8 kmh N -- 30.22 in1023.4 mb 0.00 in0.0 mm 0.00 in/hr0.0 mm/hr 0.00 in0.0 mm
01:41 PM 47.4°F8.6°C 33.8°F1.0°C 59% - N16091.8 kmh N -- 30.22 in1023.4 mb 0.00 in0.0 mm 0.00 in/hr0.0 mm/hr 0.00 in0.0 mm
01:46 PM 47.8°F8.8°C 34.2°F1.2°C 59% - N16091.8 kmh N -- 30.22 in1023.4 mb 0.00 in0.0 mm 0.00 in/hr0.0 mm/hr 0.00 in0.0 mm
01:51 PM 47.8°F8.8°C 34.2°F1.2°C 58% - N16091.8 kmh N -- 30.22 in1023.4 mb 0.00 in0.0 mm 0.00 in/hr0.0 mm/hr 0.00 in0.0 mm
01:56 PM 48.0°F8.9°C 33.9°F1.1°C 58% - N16091.8 kmh N -- 30.22 in1023.4 mb 0.00 in0.0 mm 0.00 in/hr0.0 mm/hr 0.00 in0.0 mm
02:01 PM 48.0°F8.9°C 33.9°F1.1°C 58% - N16091.8 kmh N -- 30.22 in1023.4 mb 0.00 in0.0 mm 0.00 in/hr0.0 mm/hr 0.00 in0.0 mm
02:06 PM 48.3°F9.1°C 34.2°F1.2°C 58% - N16091.8 kmh N -- 30.22 in1023.4 mb 0.00 in0.0 mm 0.00 in/hr0.0 mm/hr 0.00 in0.0 mm
02:11 PM 48.3°F9.1°C 34.2°F1.2°C 57% - N16091.8 kmh N -- 30.21 in1023.0 mb 0.00 in0.0 mm 0.00 in/hr0.0 mm/hr 0.00 in0.0 mm
02:16 PM 48.5°F9.2°C 33.9°F1.1°C 57% - N16091.8 kmh N -- 30.21 in1023.0 mb 0.00 in0.0 mm 0.00 in/hr0.0 mm/hr 0.00 in0.0 mm
02:21 PM 48.9°F9.4°C 34.3°F1.3°C 57% - N16091.8 kmh N -- 30.20 in1022.7 mb 0.00 in0.0 mm 0.00 in/hr0.0 mm/hr 0.00 in0.0 mm
02:26 PM 48.9°F9.4°C 34.3°F1.3°C 56% - N16091.8 kmh N -- 30.21 in1023.0 mb 0.00 in0.0 mm 0.00 in/hr0.0 mm/hr 0.00 in0.0 mm
02:32 PM 49.1°F9.5°C 34.0°F1.1°C 56% - N16091.8 kmh N -- 30.20 in1022.7 mb 0.00 in0.0 mm 0.00 in/hr0.0 mm/hr 0.00 in0.0 mm
02:36 PM 49.1°F9.5°C 34.0°F1.1°C 55% - N16091.8 kmh N -- 30.21 in1023.0 mb 0.00 in0.0 mm 0.00 in/hr0.0 mm/hr 0.00 in0.0 mm
02:42 PM 49.1°F9.5°C 34.0°F1.1°C 56% - N16091.8 kmh N -- 30.21 in1023.0 mb 0.00 in0.0 mm 0.00 in/hr0.0 mm/hr 0.00 in0.0 mm
02:47 PM 49.2°F9.6°C 33.7°F0.9°C 55% - N16091.8 kmh N -- 30.21 in1023.0 mb 0.00 in0.0 mm 0.00 in/hr0.0 mm/hr 0.00 in0.0 mm
02:52 PM 49.2°F9.6°C 33.7°F0.9°C 55% - N16091.8 kmh N -- 30.20 in1022.7 mb 0.00 in0.0 mm 0.00 in/hr0.0 mm/hr 0.00 in0.0 mm
02:57 PM 49.2°F9.6°C 33.7°F0.9°C 55% - N16091.8 kmh N -- 30.20 in1022.7 mb 0.00 in0.0 mm 0.00 in/hr0.0 mm/hr 0.00 in0.0 mm
03:02 PM 49.2°F9.6°C 33.7°F0.9°C 55% - N16091.8 kmh N -- 30.20 in1022.7 mb 0.00 in0.0 mm 0.00 in/hr0.0 mm/hr 0.00 in0.0 mm
03:07 PM 49.4°F9.7°C 33.4°F0.8°C 54% - N16091.8 kmh N -- 30.20 in1022.7 mb 0.00 in0.0 mm 0.00 in/hr0.0 mm/hr 0.00 in0.0 mm
03:12 PM 49.6°F9.8°C 33.6°F0.9°C 54% - N16091.8 kmh N -- 30.19 in1022.4 mb 0.00 in0.0 mm 0.00 in/hr0.0 mm/hr 0.00 in0.0 mm
03:17 PM 49.6°F9.8°C 33.6°F0.9°C 54% - N16091.8 kmh N -- 30.19 in1022.4 mb 0.00 in0.0 mm 0.00 in/hr0.0 mm/hr 0.00 in0.0 mm
03:22 PM 49.6°F9.8°C 33.6°F0.9°C 54% - N16091.8 kmh N -- 30.19 in1022.4 mb 0.00 in0.0 mm 0.00 in/hr0.0 mm/hr 0.00 in0.0 mm
03:27 PM 49.6°F9.8°C 33.6°F0.9°C 53% - N16091.8 kmh N -- 30.19 in1022.4 mb 0.00 in0.0 mm 0.00 in/hr0.0 mm/hr 0.00 in0.0 mm
03:32 PM 49.6°F9.8°C 33.6°F0.9°C 53% - N16091.8 kmh N -- 30.20 in1022.7 mb 0.00 in0.0 mm 0.00 in/hr0.0 mm/hr 0.00 in0.0 mm
03:37 PM 49.6°F9.8°C 33.6°F0.9°C 53% - N16091.8 kmh N -- 30.19 in1022.4 mb 0.00 in0.0 mm 0.00 in/hr0.0 mm/hr 0.00 in0.0 mm
03:42 PM 49.6°F9.8°C 33.6°F0.9°C 53% - N16091.8 kmh N -- 30.19 in1022.4 mb 0.00 in0.0 mm 0.00 in/hr0.0 mm/hr 0.00 in0.0 mm
03:47 PM 49.6°F9.8°C 33.6°F0.9°C 53% - N16091.8 kmh N -- 30.19 in1022.4 mb 0.00 in0.0 mm 0.00 in/hr0.0 mm/hr 0.00 in0.0 mm
03:52 PM 49.8°F9.9°C 33.3°F0.7°C 53% - N16091.8 kmh N -- 30.19 in1022.4 mb 0.00 in0.0 mm 0.00 in/hr0.0 mm/hr 0.00 in0.0 mm
03:57 PM 49.8°F9.9°C 33.3°F0.7°C 53% - N16091.8 kmh N -- 30.19 in1022.4 mb 0.00 in0.0 mm 0.00 in/hr0.0 mm/hr 0.00 in0.0 mm
04:02 PM 50.0°F10.0°C 33.5°F0.8°C 53% - N16091.8 kmh N -- 30.19 in1022.4 mb 0.00 in0.0 mm 0.00 in/hr0.0 mm/hr 0.00 in0.0 mm
04:07 PM 50.0°F10.0°C 33.5°F0.8°C 53% - N16091.8 kmh N -- 30.19 in1022.4 mb 0.00 in0.0 mm 0.00 in/hr0.0 mm/hr 0.00 in0.0 mm
04:12 PM 49.8°F9.9°C 32.9°F0.5°C 53% - N16091.8 kmh N -- 30.19 in1022.4 mb 0.00 in0.0 mm 0.00 in/hr0.0 mm/hr 0.00 in0.0 mm
04:17 PM 49.8°F9.9°C 32.9°F0.5°C 53% - N16091.8 kmh N -- 30.19 in1022.4 mb 0.00 in0.0 mm 0.00 in/hr0.0 mm/hr 0.00 in0.0 mm
04:22 PM 49.8°F9.9°C 32.9°F0.5°C 52% - N16091.8 kmh N -- 30.19 in1022.4 mb 0.00 in0.0 mm 0.00 in/hr0.0 mm/hr 0.00 in0.0 mm
04:26 PM 49.8°F9.9°C 32.9°F0.5°C 52% - N16091.8 kmh N -- 30.20 in1022.7 mb 0.00 in0.0 mm 0.00 in/hr0.0 mm/hr 0.00 in0.0 mm
04:31 PM 49.8°F9.9°C 32.9°F0.5°C 52% - N16091.8 kmh N -- 30.20 in1022.7 mb 0.00 in0.0 mm 0.00 in/hr0.0 mm/hr 0.00 in0.0 mm
04:37 PM 50.0°F10.0°C 33.5°F0.8°C 53% - N16091.8 kmh N -- 30.20 in1022.7 mb 0.00 in0.0 mm 0.00 in/hr0.0 mm/hr 0.00 in0.0 mm
04:42 PM 50.0°F10.0°C 33.5°F0.8°C 52% - N16091.8 kmh N -- 30.19 in1022.4 mb 0.00 in0.0 mm 0.00 in/hr0.0 mm/hr 0.00 in0.0 mm
04:47 PM 49.8°F9.9°C 32.9°F0.5°C 52% - N16091.8 kmh N -- 30.19 in1022.4 mb 0.00 in0.0 mm 0.00 in/hr0.0 mm/hr 0.00 in0.0 mm
04:52 PM 49.8°F9.9°C 32.9°F0.5°C 53% - N16091.8 kmh N -- 30.19 in1022.4 mb 0.00 in0.0 mm 0.00 in/hr0.0 mm/hr 0.00 in0.0 mm
04:57 PM 49.8°F9.9°C 32.9°F0.5°C 53% - N16091.8 kmh N -- 30.19 in1022.4 mb 0.00 in0.0 mm 0.00 in/hr0.0 mm/hr 0.00 in0.0 mm
05:02 PM 49.8°F9.9°C 33.3°F0.7°C 53% - N16091.8 kmh N -- 30.19 in1022.4 mb 0.00 in0.0 mm 0.00 in/hr0.0 mm/hr 0.00 in0.0 mm
05:07 PM 49.6°F9.8°C 33.1°F0.6°C 53% - N16091.8 kmh N -- 30.19 in1022.4 mb 0.00 in0.0 mm 0.00 in/hr0.0 mm/hr 0.00 in0.0 mm
05:12 PM 49.4°F9.7°C 33.0°F0.6°C 53% - N16091.8 kmh N -- 30.18 in1022.0 mb 0.00 in0.0 mm 0.00 in/hr0.0 mm/hr 0.00 in0.0 mm
05:17 PM 49.1°F9.5°C 32.6°F0.3°C 53% - N16091.8 kmh N -- 30.19 in1022.4 mb 0.00 in0.0 mm 0.00 in/hr0.0 mm/hr 0.00 in0.0 mm
05:22 PM 48.9°F9.4°C 32.4°F0.2°C 53% - N16091.8 kmh N -- 30.19 in1022.4 mb 0.00 in0.0 mm 0.00 in/hr0.0 mm/hr 0.00 in0.0 mm
05:27 PM 48.9°F9.4°C 32.4°F0.2°C 53% - N16091.8 kmh N -- 30.19 in1022.4 mb 0.00 in0.0 mm 0.00 in/hr0.0 mm/hr 0.00 in0.0 mm
05:32 PM 48.5°F9.2°C 32.1°F0.1°C 53% - N16091.8 kmh N -- 30.19 in1022.4 mb 0.00 in0.0 mm 0.00 in/hr0.0 mm/hr 0.00 in0.0 mm
05:37 PM 48.0°F8.9°C 31.6°F-0.2°C 53% - N16091.8 kmh N -- 30.19 in1022.4 mb 0.00 in0.0 mm 0.00 in/hr0.0 mm/hr 0.00 in0.0 mm
05:42 PM 48.0°F8.9°C 31.6°F-0.2°C 53% - N16091.8 kmh N -- 30.20 in1022.7 mb 0.00 in0.0 mm 0.00 in/hr0.0 mm/hr 0.00 in0.0 mm
05:47 PM 47.8°F8.8°C 31.9°F-0.1°C 54% - N16091.8 kmh N -- 30.20 in1022.7 mb 0.00 in0.0 mm 0.00 in/hr0.0 mm/hr 0.00 in0.0 mm
05:52 PM 47.8°F8.8°C 31.9°F-0.1°C 54% - N16091.8 kmh N -- 30.20 in1022.7 mb 0.00 in0.0 mm 0.00 in/hr0.0 mm/hr 0.00 in0.0 mm
05:57 PM 47.3°F8.5°C 31.4°F-0.3°C 54% - N16091.8 kmh N -- 30.20 in1022.7 mb 0.00 in0.0 mm 0.00 in/hr0.0 mm/hr 0.00 in0.0 mm
06:02 PM 46.9°F8.3°C 31.0°F-0.6°C 54% - N16091.8 kmh N -- 30.20 in1022.7 mb 0.00 in0.0 mm 0.00 in/hr0.0 mm/hr 0.00 in0.0 mm
06:07 PM 46.5°F8.1°C 30.7°F-0.7°C 54% - N16091.8 kmh N -- 30.20 in1022.7 mb 0.00 in0.0 mm 0.00 in/hr0.0 mm/hr 0.00 in0.0 mm
06:13 PM 46.2°F7.9°C 30.4°F-0.9°C 55% - N16091.8 kmh N -- 30.19 in1022.4 mb 0.00 in0.0 mm 0.00 in/hr0.0 mm/hr 0.00 in0.0 mm
06:18 PM 46.0°F7.8°C 30.6°F-0.8°C 55% - N16091.8 kmh N -- 30.19 in1022.4 mb 0.00 in0.0 mm 0.00 in/hr0.0 mm/hr 0.00 in0.0 mm
06:23 PM 45.6°F7.6°C 30.3°F-0.9°C 55% - N16091.8 kmh N -- 30.19 in1022.4 mb 0.00 in0.0 mm 0.00 in/hr0.0 mm/hr 0.00 in0.0 mm
06:27 PM 45.5°F7.5°C 30.2°F-1.0°C 55% - N16091.8 kmh N -- 30.19 in1022.4 mb 0.00 in0.0 mm 0.00 in/hr0.0 mm/hr 0.00 in0.0 mm
06:33 PM 45.3°F7.4°C 30.0°F-1.1°C 55% - N16091.8 kmh N -- 30.20 in1022.7 mb 0.00 in0.0 mm 0.00 in/hr0.0 mm/hr 0.00 in0.0 mm
06:37 PM 45.1°F7.3°C 29.8°F-1.2°C 55% - N16091.8 kmh N -- 30.20 in1022.7 mb 0.00 in0.0 mm 0.00 in/hr0.0 mm/hr 0.00 in0.0 mm
06:43 PM 44.9°F7.2°C 29.7°F-1.3°C 56% - N16091.8 kmh N -- 30.20 in1022.7 mb 0.00 in0.0 mm 0.00 in/hr0.0 mm/hr 0.00 in0.0 mm
06:48 PM 44.7°F7.1°C 30.0°F-1.1°C 56% - N16091.8 kmh N -- 30.19 in1022.4 mb 0.00 in0.0 mm 0.00 in/hr0.0 mm/hr 0.00 in0.0 mm
06:53 PM 44.2°F6.8°C 29.4°F-1.4°C 56% - N16091.8 kmh N -- 30.20 in1022.7 mb 0.00 in0.0 mm 0.00 in/hr0.0 mm/hr 0.00 in0.0 mm
06:58 PM 44.2°F6.8°C 29.4°F-1.4°C 57% - N16091.8 kmh N -- 30.20 in1022.7 mb 0.00 in0.0 mm 0.00 in/hr0.0 mm/hr 0.00 in0.0 mm
07:03 PM 43.8°F6.6°C 29.5°F-1.4°C 57% - N16091.8 kmh N -- 30.20 in1022.7 mb 0.00 in0.0 mm 0.00 in/hr0.0 mm/hr 0.00 in0.0 mm
07:08 PM 43.5°F6.4°C 29.2°F-1.6°C 57% - N16091.8 kmh N -- 30.20 in1022.7 mb 0.00 in0.0 mm 0.00 in/hr0.0 mm/hr 0.00 in0.0 mm
07:13 PM 43.3°F6.3°C 29.0°F-1.7°C 57% - N16091.8 kmh N -- 30.20 in1022.7 mb 0.00 in0.0 mm 0.00 in/hr0.0 mm/hr 0.00 in0.0 mm
07:18 PM 43.1°F6.2°C 29.3°F-1.5°C 58% - N16091.8 kmh N -- 30.20 in1022.7 mb 0.00 in0.0 mm 0.00 in/hr0.0 mm/hr 0.00 in0.0 mm
07:23 PM 42.6°F5.9°C 28.8°F-1.8°C 58% - N16091.8 kmh N -- 30.20 in1022.7 mb 0.00 in0.0 mm 0.00 in/hr0.0 mm/hr 0.00 in0.0 mm
07:28 PM 42.4°F5.8°C 29.0°F-1.7°C 59% - N16091.8 kmh N -- 30.20 in1022.7 mb 0.00 in0.0 mm 0.00 in/hr0.0 mm/hr 0.00 in0.0 mm
07:33 PM 42.2°F5.7°C 29.3°F-1.5°C 60% - N16091.8 kmh N -- 30.19 in1022.4 mb 0.00 in0.0 mm 0.00 in/hr0.0 mm/hr 0.00 in0.0 mm
07:38 PM 41.9°F5.5°C 29.0°F-1.7°C 60% - N16091.8 kmh N -- 30.19 in1022.4 mb 0.00 in0.0 mm 0.00 in/hr0.0 mm/hr 0.00 in0.0 mm
07:43 PM 41.7°F5.4°C 28.8°F-1.8°C 60% - N16091.8 kmh N -- 30.19 in1022.4 mb 0.00 in0.0 mm 0.00 in/hr0.0 mm/hr 0.00 in0.0 mm
07:48 PM 41.5°F5.3°C 29.0°F-1.7°C 61% - N16091.8 kmh N -- 30.20 in1022.7 mb 0.00 in0.0 mm 0.00 in/hr0.0 mm/hr 0.00 in0.0 mm
07:53 PM 41.3°F5.2°C 28.9°F-1.7°C 61% - N16091.8 kmh N -- 30.20 in1022.7 mb 0.00 in0.0 mm 0.00 in/hr0.0 mm/hr 0.00 in0.0 mm
07:58 PM 41.3°F5.2°C 28.9°F-1.7°C 61% - N16091.8 kmh N -- 30.20 in1022.7 mb 0.00 in0.0 mm 0.00 in/hr0.0 mm/hr 0.00 in0.0 mm
08:03 PM 41.1°F5.1°C 28.7°F-1.8°C 61% - N16091.8 kmh N -- 30.20 in1022.7 mb 0.00 in0.0 mm 0.00 in/hr0.0 mm/hr 0.00 in0.0 mm
08:08 PM 40.8°F4.9°C 28.7°F-1.8°C 62% - N16091.8 kmh N -- 30.20 in1022.7 mb 0.00 in0.0 mm 0.00 in/hr0.0 mm/hr 0.00 in0.0 mm
08:13 PM 40.8°F4.9°C 28.7°F-1.8°C 62% - N16091.8 kmh N -- 30.21 in1023.0 mb 0.00 in0.0 mm 0.00 in/hr0.0 mm/hr 0.00 in0.0 mm
08:19 PM 40.8°F4.9°C 28.7°F-1.8°C 62% - N16091.8 kmh N -- 30.21 in1023.0 mb 0.00 in0.0 mm 0.00 in/hr0.0 mm/hr 0.00 in0.0 mm
08:22 PM 40.6°F4.8°C 28.9°F-1.7°C 63% - N16091.8 kmh N -- 30.20 in1022.7 mb 0.00 in0.0 mm 0.00 in/hr0.0 mm/hr 0.00 in0.0 mm
08:27 PM 40.2°F4.6°C 28.6°F-1.9°C 63% - N16091.8 kmh N -- 30.20 in1022.7 mb 0.00 in0.0 mm 0.00 in/hr0.0 mm/hr 0.00 in0.0 mm
08:32 PM 40.2°F4.6°C 28.6°F-1.9°C 63% - N16091.8 kmh N -- 30.21 in1023.0 mb 0.00 in0.0 mm 0.00 in/hr0.0 mm/hr 0.00 in0.0 mm
08:37 PM 40.2°F4.6°C 28.6°F-1.9°C 64% - N16091.8 kmh N -- 30.21 in1023.0 mb 0.00 in0.0 mm 0.00 in/hr0.0 mm/hr 0.00 in0.0 mm
08:43 PM 40.1°F4.5°C 28.8°F-1.8°C 64% - N16091.8 kmh N -- 30.20 in1022.7 mb 0.00 in0.0 mm 0.00 in/hr0.0 mm/hr 0.00 in0.0 mm
08:48 PM 39.9°F4.4°C 28.6°F-1.9°C 64% - N16091.8 kmh N -- 30.20 in1022.7 mb 0.00 in0.0 mm 0.00 in/hr0.0 mm/hr 0.00 in0.0 mm
08:53 PM 39.9°F4.4°C 28.6°F-1.9°C 64% - N16091.8 kmh N -- 30.20 in1022.7 mb 0.00 in0.0 mm 0.00 in/hr0.0 mm/hr 0.00 in0.0 mm
08:58 PM 39.7°F4.3°C 28.4°F-2.0°C 64% - N16091.8 kmh N -- 30.19 in1022.4 mb 0.00 in0.0 mm 0.00 in/hr0.0 mm/hr 0.00 in0.0 mm
09:03 PM 39.7°F4.3°C 28.4°F-2.0°C 64% - N16091.8 kmh N -- 30.19 in1022.4 mb 0.00 in0.0 mm 0.00 in/hr0.0 mm/hr 0.00 in0.0 mm
09:08 PM 39.7°F4.3°C 28.4°F-2.0°C 64% - N16091.8 kmh N -- 30.20 in1022.7 mb 0.00 in0.0 mm 0.00 in/hr0.0 mm/hr 0.00 in0.0 mm
09:13 PM 39.7°F4.3°C 28.4°F-2.0°C 64% - N16091.8 kmh N -- 30.19 in1022.4 mb 0.00 in0.0 mm 0.00 in/hr0.0 mm/hr 0.00 in0.0 mm
09:18 PM 39.7°F4.3°C 28.4°F-2.0°C 64% - N16091.8 kmh N -- 30.20 in1022.7 mb 0.00 in0.0 mm 0.00 in/hr0.0 mm/hr 0.00 in0.0 mm
09:23 PM 39.7°F4.3°C 28.4°F-2.0°C 64% - N16091.8 kmh N -- 30.19 in1022.4 mb 0.00 in0.0 mm 0.00 in/hr0.0 mm/hr 0.00 in0.0 mm
09:28 PM 39.5°F4.2°C 28.2°F-2.1°C 64% - N16091.8 kmh N -- 30.19 in1022.4 mb 0.00 in0.0 mm 0.00 in/hr0.0 mm/hr 0.00 in0.0 mm
09:33 PM 39.5°F4.2°C 28.2°F-2.1°C 64% - N16091.8 kmh N -- 30.20 in1022.7 mb 0.00 in0.0 mm 0.00 in/hr0.0 mm/hr 0.00 in0.0 mm
09:38 PM 39.5°F4.2°C 28.2°F-2.1°C 64% - N16091.8 kmh N -- 30.20 in1022.7 mb 0.00 in0.0 mm 0.00 in/hr0.0 mm/hr 0.00 in0.0 mm
09:43 PM 39.5°F4.2°C 28.2°F-2.1°C 64% - N16091.8 kmh N -- 30.20 in1022.7 mb 0.00 in0.0 mm 0.00 in/hr0.0 mm/hr 0.00 in0.0 mm
09:48 PM 39.5°F4.2°C 28.2°F-2.1°C 64% - N16091.8 kmh N -- 30.20 in1022.7 mb 0.00 in0.0 mm 0.00 in/hr0.0 mm/hr 0.00 in0.0 mm
09:53 PM 39.3°F4.1°C 28.1°F-2.2°C 64% - N16091.8 kmh N -- 30.20 in1022.7 mb 0.00 in0.0 mm 0.00 in/hr0.0 mm/hr 0.00 in0.0 mm
09:58 PM 39.3°F4.1°C 28.1°F-2.2°C 64% - N16091.8 kmh N -- 30.20 in1022.7 mb 0.00 in0.0 mm 0.00 in/hr0.0 mm/hr 0.00 in0.0 mm
10:03 PM 39.3°F4.1°C 28.1°F-2.2°C 64% - N16091.8 kmh N -- 30.20 in1022.7 mb 0.00 in0.0 mm 0.00 in/hr0.0 mm/hr 0.00 in0.0 mm
10:08 PM 39.0°F3.9°C 27.7°F-2.4°C 64% - N16091.8 kmh N -- 30.20 in1022.7 mb 0.00 in0.0 mm 0.00 in/hr0.0 mm/hr 0.00 in0.0 mm
10:13 PM 39.0°F3.9°C 27.7°F-2.4°C 64% - N16091.8 kmh N -- 30.20 in1022.7 mb 0.00 in0.0 mm 0.00 in/hr0.0 mm/hr 0.00 in0.0 mm
10:18 PM 38.8°F3.8°C 27.6°F-2.4°C 64% - N16091.8 kmh N -- 30.20 in1022.7 mb 0.00 in0.0 mm 0.00 in/hr0.0 mm/hr 0.00 in0.0 mm
10:23 PM 38.8°F3.8°C 27.6°F-2.4°C 64% - N16091.8 kmh N -- 30.20 in1022.7 mb 0.00 in0.0 mm 0.00 in/hr0.0 mm/hr 0.00 in0.0 mm
10:28 PM 38.8°F3.8°C 27.6°F-2.4°C 64% - N16091.8 kmh N -- 30.20 in1022.7 mb 0.00 in0.0 mm 0.00 in/hr0.0 mm/hr 0.00 in0.0 mm
10:33 PM 39.0°F3.9°C 27.7°F-2.4°C 64% - N16091.8 kmh N -- 30.20 in1022.7 mb 0.00 in0.0 mm 0.00 in/hr0.0 mm/hr 0.00 in0.0 mm
10:38 PM 38.8°F3.8°C 27.6°F-2.4°C 64% - N16091.8 kmh N -- 30.20 in1022.7 mb 0.00 in0.0 mm 0.00 in/hr0.0 mm/hr 0.00 in0.0 mm
10:43 PM 38.8°F3.8°C 27.6°F-2.4°C 64% - N16091.8 kmh N -- 30.20 in1022.7 mb 0.00 in0.0 mm 0.00 in/hr0.0 mm/hr 0.00 in0.0 mm
10:48 PM 38.8°F3.8°C 27.6°F-2.4°C 64% - N16091.8 kmh N -- 30.20 in1022.7 mb 0.00 in0.0 mm 0.00 in/hr0.0 mm/hr 0.00 in0.0 mm
10:53 PM 38.8°F3.8°C 27.6°F-2.4°C 64% - N16091.8 kmh N -- 30.20 in1022.7 mb 0.00 in0.0 mm 0.00 in/hr0.0 mm/hr 0.00 in0.0 mm
10:58 PM 38.8°F3.8°C 27.6°F-2.4°C 64% - N16091.8 kmh N -- 30.20 in1022.7 mb 0.00 in0.0 mm 0.00 in/hr0.0 mm/hr 0.00 in0.0 mm
11:03 PM 38.6°F3.7°C 27.8°F-2.3°C 65% - N16091.8 kmh N -- 30.21 in1023.0 mb 0.00 in0.0 mm 0.00 in/hr0.0 mm/hr 0.00 in0.0 mm
11:08 PM 38.4°F3.6°C 27.6°F-2.4°C 65% - N16091.8 kmh N -- 30.21 in1023.0 mb 0.00 in0.0 mm 0.00 in/hr0.0 mm/hr 0.00 in0.0 mm
11:14 PM 38.4°F3.6°C 27.6°F-2.4°C 65% - N16091.8 kmh N -- 30.21 in1023.0 mb 0.00 in0.0 mm 0.00 in/hr0.0 mm/hr 0.00 in0.0 mm
11:19 PM 38.4°F3.6°C 27.6°F-2.4°C 65% - N16091.8 kmh N -- 30.21 in1023.0 mb 0.00 in0.0 mm 0.00 in/hr0.0 mm/hr 0.00 in0.0 mm
11:24 PM 38.3°F3.5°C 27.5°F-2.5°C 65% - N16091.8 kmh N -- 30.21 in1023.0 mb 0.00 in0.0 mm 0.00 in/hr0.0 mm/hr 0.00 in0.0 mm
11:29 PM 38.1°F3.4°C 27.3°F-2.6°C 65% - N16091.8 kmh N -- 30.21 in1023.0 mb 0.00 in0.0 mm 0.00 in/hr0.0 mm/hr 0.00 in0.0 mm
11:34 PM 38.1°F3.4°C 27.3°F-2.6°C 66% - N16091.8 kmh N -- 30.20 in1022.7 mb 0.00 in0.0 mm 0.00 in/hr0.0 mm/hr 0.00 in0.0 mm
11:39 PM 38.1°F3.4°C 27.3°F-2.6°C 66% - N16091.8 kmh N -- 30.20 in1022.7 mb 0.00 in0.0 mm 0.00 in/hr0.0 mm/hr 0.00 in0.0 mm
11:44 PM 37.9°F3.3°C 27.5°F-2.5°C 66% - N16091.8 kmh N -- 30.20 in1022.7 mb 0.00 in0.0 mm 0.00 in/hr0.0 mm/hr 0.00 in0.0 mm
11:49 PM 37.9°F3.3°C 27.5°F-2.5°C 66% - N16091.8 kmh N -- 30.20 in1022.7 mb 0.00 in0.0 mm 0.00 in/hr0.0 mm/hr 0.00 in0.0 mm
11:54 PM 37.5°F3.1°C 27.2°F-2.7°C 66% - N16091.8 kmh N -- 30.20 in1022.7 mb 0.00 in0.0 mm 0.00 in/hr0.0 mm/hr 0.00 in0.0 mm
11:59 PM 37.5°F3.1°C 27.2°F-2.7°C 66% - N16091.8 kmh N -- 30.20 in1022.7 mb 0.00 in0.0 mm 0.00 in/hr0.0 mm/hr 0.00 in0.0 mm